Darstellungsparameter: Aktuell verwendete Einstellungen:
Skalierung der Graphiken ... ?
xyx+y,   Skalierungsfaktor:      Skalierung: Modus: x, Faktor: 1
Darstellungszeitraum ... ?
Vom - - bis: - -   Zeitraum: 13.11.2007 - 17.11.2007
Min/Max/Avg-Anzeige ... ?
Zeige MMA aktuell
Zeige MMA Monat
Zeige MMA alles
Zeige --A aktuell
Zeige --A Monat
Zeige --A alles
Keine MMA-Anzeige
MMA:
Average (ber die Originaldaten)
MMA-Basis: 17.04.2019 - 19.05.2019
Quicknavigation für Darstellung... ?
Tage:      1T, 2T, 3T, 5T -1T -2T -3T -5T +1T +2T +3T +5T
Wochen: 1W, 2W, 3W -1W -2W -3W +1W +2W +3W
Monate: 1M, 3M, 6M -1M -3M -6M +1M +3M +6M
Jahre:    1J, 3J, 5J, 10J -1J -3J -5J -10J +1J +3J +5J +10J
Nutze für die Darstellung ... ?
Originaldaten oder Mittelwerte auf ...
Stundenbasis Tagesbasis Wochenbasis
Monatsbasis Jahresbasis      Datenbasis: Original-Daten
Darstellen als:
Statistik (Auto) Statistik J:M      Darstellung:
Zur Graphik,    zurück zur Übersicht aller Sensoren.
 
Tabellarische Datenbersicht: ?
 
Sensor: Nr:Datum:Temp:Abs-Feuchte:Windchill:Wind:
Aussen-T/F 1 13-11-2007 00:08:02 3.9 C 4.8 g/m*3 3.9 C 0 km/h
2 13-11-2007 00:20:02 4 C 4.77 g/m*3 4 C 0 km/h
3 13-11-2007 00:32:02 3.8 C 4.77 g/m*3 3.8 C 0 km/h
4 13-11-2007 00:44:02 3.6 C 4.77 g/m*3 3.6 C 0 km/h
5 13-11-2007 00:56:02 3.4 C 4.76 g/m*3 3.4 C 0 km/h
6 13-11-2007 01:08:02 3.7 C 4.86 g/m*3 3.7 C 0 km/h
7 13-11-2007 01:20:02 3.9 C 4.86 g/m*3 3.9 C 0 km/h
8 13-11-2007 01:32:02 3.8 C 4.83 g/m*3 3.8 C 0 km/h
9 13-11-2007 01:44:03 3.7 C 4.8 g/m*3 3.7 C 0 km/h
10 13-11-2007 01:56:02 3.7 C 4.86 g/m*3 3.7 C 0 km/h
11 13-11-2007 02:08:02 3.7 C 4.86 g/m*3 3.7 C 0 km/h
12 13-11-2007 02:20:02 3.7 C 4.86 g/m*3 3.7 C 0 km/h
13 13-11-2007 02:32:02 3.6 C 4.83 g/m*3 3.6 C 0 km/h
14 13-11-2007 02:44:02 3.8 C 4.89 g/m*3 3.8 C 0 km/h
15 13-11-2007 02:56:01 4 C 4.83 g/m*3 4 C 0 km/h
16 13-11-2007 03:08:01 4.2 C 4.83 g/m*3 4.2 C 0 km/h
17 13-11-2007 03:20:02 4.1 C 4.8 g/m*3 4.1 C 0 km/h
18 13-11-2007 03:32:02 3.9 C 4.74 g/m*3 3.9 C 0 km/h
19 13-11-2007 03:44:02 3.7 C 4.74 g/m*3 3.7 C 0 km/h
20 13-11-2007 03:56:02 3.7 C 4.74 g/m*3 3.7 C 0 km/h
21 13-11-2007 04:08:02 3.7 C 4.8 g/m*3 3.7 C 0 km/h
22 13-11-2007 04:20:02 3.7 C 4.74 g/m*3 3.7 C 0 km/h
23 13-11-2007 04:32:02 3.8 C 4.77 g/m*3 3.8 C 0 km/h
24 13-11-2007 04:44:02 3.9 C 4.8 g/m*3 3.9 C 0 km/h
25 13-11-2007 04:56:02 4 C 4.83 g/m*3 4 C 0 km/h
Sensor: Nr:Datum:Temp:Abs-Feuchte:Windchill:Wind:
Aussen-T/F 26 13-11-2007 05:08:02 4 C 4.83 g/m*3 4 C 0 km/h
27 13-11-2007 05:20:01 3.9 C 4.86 g/m*3 3.9 C 0 km/h
28 13-11-2007 05:32:01 3.8 C 4.83 g/m*3 3.8 C 0 km/h
29 13-11-2007 05:44:01 3.8 C 4.89 g/m*3 3.8 C 0 km/h
30 13-11-2007 05:56:01 3.8 C 4.89 g/m*3 3.8 C 0 km/h
31 13-11-2007 06:08:01 3.8 C 4.96 g/m*3 3.8 C 0 km/h
32 13-11-2007 06:20:01 4 C 4.96 g/m*3 4 C 0 km/h
33 13-11-2007 06:32:02 4.1 C 4.99 g/m*3 4.1 C 0 km/h
34 13-11-2007 06:44:02 4.1 C 4.99 g/m*3 4.1 C 0 km/h
35 13-11-2007 06:56:01 4 C 5.09 g/m*3 4 C 0 km/h
36 13-11-2007 07:08:02 3.8 C 5.21 g/m*3 3.8 C 0 km/h
37 13-11-2007 07:20:02 3.7 C 5.36 g/m*3 3.7 C 0 km/h
38 13-11-2007 07:32:02 3.7 C 5.48 g/m*3 3.7 C 0 km/h
39 13-11-2007 07:44:02 3.7 C 5.55 g/m*3 3.7 C 0 km/h
40 13-11-2007 07:56:02 3.7 C 5.55 g/m*3 3.7 C 0 km/h
41 13-11-2007 08:08:02 3.8 C 5.58 g/m*3 3.8 C 0 km/h
42 13-11-2007 08:20:01 3.8 C 5.58 g/m*3 3.8 C 0 km/h
43 13-11-2007 08:32:02 3.8 C 5.58 g/m*3 3.8 C 0 km/h
44 13-11-2007 08:44:02 3.8 C 5.58 g/m*3 3.8 C 0 km/h
45 13-11-2007 08:56:01 3.8 C 5.58 g/m*3 3.8 C 0 km/h
46 13-11-2007 09:08:02 3.9 C 5.62 g/m*3 3.9 C 0 km/h
47 13-11-2007 09:20:02 4.2 C 5.67 g/m*3 4.2 C 0 km/h
48 13-11-2007 09:32:01 4.4 C 5.62 g/m*3 4.4 C 0 km/h
49 13-11-2007 09:44:01 4.5 C 5.46 g/m*3 4.5 C 0 km/h
50 13-11-2007 09:56:02 4.7 C 5.4 g/m*3 4.7 C 0 km/h
Sensor: Nr:Datum:Temp:Abs-Feuchte:Windchill:Wind:
Aussen-T/F 51 13-11-2007 10:08:02 4.8 C 5.23 g/m*3 4.8 C 0 km/h
52 13-11-2007 10:20:01 5 C 5.03 g/m*3 5 C 0 km/h
53 13-11-2007 10:32:01 5.2 C 4.89 g/m*3 5.2 C 0 km/h
54 13-11-2007 10:44:01 5.3 C 4.78 g/m*3 5.3 C 0 km/h
55 13-11-2007 10:56:01 5.2 C 4.96 g/m*3 5.2 C 0 km/h
56 13-11-2007 11:08:01 5.4 C 4.74 g/m*3 5.4 C 0 km/h
57 13-11-2007 11:20:02 5.6 C 4.67 g/m*3 5.6 C 0 km/h
58 13-11-2007 11:32:02 5.6 C 4.52 g/m*3 5.6 C 0 km/h
59 13-11-2007 11:44:02 5.6 C 4.6 g/m*3 5.6 C 0 km/h
60 13-11-2007 11:56:02 6 C 4.65 g/m*3 6 C 0 km/h
61 13-11-2007 12:08:02 6.2 C 4.34 g/m*3 6.2 C 0 km/h
62 13-11-2007 12:20:01 6.2 C 4.27 g/m*3 6.2 C 0 km/h
63 13-11-2007 12:32:01 6.4 C 4.47 g/m*3 6.4 C 0 km/h
64 13-11-2007 12:44:01 6.4 C 4.47 g/m*3 6.4 C 0 km/h
65 13-11-2007 12:56:02 6.1 C 4.38 g/m*3 6.1 C 0 km/h
66 13-11-2007 13:08:01 5.7 C 4.63 g/m*3 5.7 C 0 km/h
67 13-11-2007 13:20:01 5.3 C 4.85 g/m*3 5.3 C 0 km/h
68 13-11-2007 13:32:02 4.6 C 5.03 g/m*3 4.6 C 0 km/h
69 13-11-2007 13:44:02 4.4 C 5.09 g/m*3 4.4 C 0 km/h
70 13-11-2007 13:56:01 4.3 C 5.12 g/m*3 4.3 C 0 km/h
71 13-11-2007 14:08:02 4.2 C 5.09 g/m*3 4.2 C 0 km/h
72 13-11-2007 14:20:02 3.8 C 5.08 g/m*3 3.8 C 0 km/h
73 13-11-2007 14:32:01 3.7 C 5.17 g/m*3 3.7 C 0 km/h
74 13-11-2007 14:44:01 3.6 C 5.26 g/m*3 3.6 C 0 km/h
75 13-11-2007 14:56:02 3.5 C 5.29 g/m*3 3.5 C 0 km/h
Sensor: Nr:Datum:Temp:Abs-Feuchte:Windchill:Wind:
Aussen-T/F 76 13-11-2007 15:08:01 3.6 C 5.32 g/m*3 3.6 C 0 km/h
77 13-11-2007 15:20:02 3.6 C 5.32 g/m*3 3.6 C 0 km/h
78 13-11-2007 15:32:02 3.8 C 5.27 g/m*3 3.8 C 0 km/h
79 13-11-2007 15:44:02 3.9 C 5.24 g/m*3 3.9 C 0 km/h
80 13-11-2007 15:56:01 3.8 C 5.27 g/m*3 3.8 C 0 km/h
81 13-11-2007 16:08:02 3.7 C 5.3 g/m*3 3.7 C 0 km/h
82 13-11-2007 16:20:02 3.6 C 5.32 g/m*3 3.6 C 0 km/h
83 13-11-2007 16:32:02 3.5 C 5.29 g/m*3 3.5 C 0 km/h
84 13-11-2007 16:44:02 3.5 C 5.35 g/m*3 3.5 C 0 km/h
85 13-11-2007 16:56:02 3.4 C 5.31 g/m*3 3.4 C 0 km/h
86 13-11-2007 17:08:02 3.3 C 5.34 g/m*3 3.3 C 0 km/h
87 13-11-2007 17:20:02 3.3 C 5.34 g/m*3 3.3 C 0 km/h
88 13-11-2007 17:32:02 3.2 C 5.3 g/m*3 3.2 C 0 km/h
89 13-11-2007 17:44:02 3.3 C 5.34 g/m*3 3.3 C 0 km/h
90 13-11-2007 17:56:01 3.2 C 5.3 g/m*3 3.2 C 0 km/h
91 13-11-2007 18:08:01 3.2 C 5.36 g/m*3 3.2 C 0 km/h
92 13-11-2007 18:20:01 3.2 C 5.36 g/m*3 3.2 C 0 km/h
93 13-11-2007 18:32:01 3.3 C 5.4 g/m*3 3.3 C 0 km/h
94 13-11-2007 18:44:01 3.3 C 5.4 g/m*3 3.3 C 0 km/h
95 13-11-2007 18:56:02 3.5 C 5.41 g/m*3 3.5 C 0 km/h
96 13-11-2007 19:08:02 3.7 C 5.42 g/m*3 3.7 C 0 km/h
97 13-11-2007 19:20:01 3.8 C 5.33 g/m*3 3.8 C 0 km/h
98 13-11-2007 19:32:01 3.8 C 5.27 g/m*3 3.8 C 0 km/h
99 13-11-2007 19:44:01 3.8 C 5.27 g/m*3 3.8 C 0 km/h
100 13-11-2007 19:56:02 3.5 C 5.29 g/m*3 3.5 C 0 km/h
Sensor: Nr:Datum:Temp:Abs-Feuchte:Windchill:Wind:
Aussen-T/F 101 13-11-2007 20:08:02 3.5 C 5.35 g/m*3 3.5 C 0 km/h
102 13-11-2007 20:20:01 3.5 C 5.41 g/m*3 3.5 C 0 km/h
103 13-11-2007 20:32:02 3.6 C 5.39 g/m*3 3.6 C 0 km/h
104 13-11-2007 20:44:02 3.6 C 5.39 g/m*3 3.6 C 0 km/h
105 13-11-2007 20:56:01 3.6 C 5.39 g/m*3 3.6 C 0 km/h
106 13-11-2007 21:08:01 3.6 C 5.39 g/m*3 3.6 C 0 km/h
107 13-11-2007 21:20:02 3.6 C 5.32 g/m*3 3.6 C 0 km/h
108 13-11-2007 21:32:02 3.6 C 5.32 g/m*3 3.6 C 0 km/h
109 13-11-2007 21:44:02 3.5 C 5.35 g/m*3 3.5 C 0 km/h
110 13-11-2007 21:56:01 3.4 C 5.37 g/m*3 3.4 C 0 km/h
111 13-11-2007 22:08:01 3.4 C 5.37 g/m*3 3.4 C 0 km/h
112 13-11-2007 22:20:01 3.4 C 5.44 g/m*3 3.4 C 0 km/h
113 13-11-2007 22:32:01 3.4 C 5.44 g/m*3 3.4 C 0 km/h
114 13-11-2007 22:44:01 3.2 C 5.42 g/m*3 3.2 C 0 km/h
115 13-11-2007 22:56:02 3.2 C 5.48 g/m*3 3.2 C 0 km/h
116 13-11-2007 23:08:02 3.2 C 5.48 g/m*3 3.2 C 0 km/h
117 13-11-2007 23:20:02 3.1 C 5.51 g/m*3 3.1 C 0 km/h
118 13-11-2007 23:32:02 3.2 C 5.54 g/m*3 3.2 C 0 km/h
119 13-11-2007 23:44:02 3.3 C 5.64 g/m*3 3.3 C 0 km/h
120 13-11-2007 23:56:01 3.4 C 5.68 g/m*3 3.4 C 0 km/h
121 14-11-2007 00:08:01 3.4 C 5.68 g/m*3 3.4 C 0 km/h
122 14-11-2007 00:20:02 3.4 C 5.74 g/m*3 3.4 C 0 km/h
123 14-11-2007 00:32:02 3.4 C 5.74 g/m*3 3.4 C 0 km/h
124 14-11-2007 00:44:02 3.5 C 5.78 g/m*3 3.5 C 0 km/h
125 14-11-2007 00:56:01 3.6 C 5.82 g/m*3 3.6 C 0 km/h
Sensor: Nr:Datum:Temp:Abs-Feuchte:Windchill:Wind:
Aussen-T/F 126 14-11-2007 01:08:01 3.6 C 5.88 g/m*3 3.6 C 0 km/h
127 14-11-2007 01:20:01 3.7 C 5.92 g/m*3 3.7 C 0 km/h
128 14-11-2007 01:32:01 3.7 C 5.92 g/m*3 3.7 C 0 km/h
129 14-11-2007 01:44:01 3.7 C 5.92 g/m*3 3.7 C 0 km/h
130 14-11-2007 01:56:02 3.8 C 5.96 g/m*3 3.8 C 0 km/h
131 14-11-2007 02:08:02 3.8 C 5.96 g/m*3 3.8 C 0 km/h
132 14-11-2007 02:20:01 3.7 C 5.92 g/m*3 3.7 C 0 km/h
133 14-11-2007 02:32:01 3.7 C 5.92 g/m*3 3.7 C 0 km/h
134 14-11-2007 02:44:01 3.6 C 5.82 g/m*3 3.6 C 0 km/h
135 14-11-2007 02:57:07 3.5 C 5.66 g/m*3 3.5 C 0 km/h
136 14-11-2007 03:09:07 3.4 C 5.5 g/m*3 3.4 C 0 km/h
137 14-11-2007 03:21:07 3.2 C 5.3 g/m*3 3.2 C 0 km/h
138 14-11-2007 03:33:02 3.1 C 5.15 g/m*3 3.1 C 0 km/h
139 14-11-2007 03:45:02 3.1 C 5.09 g/m*3 3.1 C 0 km/h
140 14-11-2007 03:57:03 3 C 5.05 g/m*3 3 C 0 km/h
141 14-11-2007 04:09:02 3 C 5.11 g/m*3 3 C 0 km/h
142 14-11-2007 04:21:02 3 C 5.05 g/m*3 3 C 0 km/h
143 14-11-2007 04:33:02 3 C 4.99 g/m*3 3 C 0 km/h
144 14-11-2007 04:45:02 2.7 C 4.89 g/m*3 2.7 C 0 km/h
145 14-11-2007 04:57:02 2.4 C 4.85 g/m*3 2.4 C 0 km/h
146 14-11-2007 05:09:02 2.4 C 4.91 g/m*3 2.4 C 0 km/h
147 14-11-2007 05:21:02 2.4 C 4.85 g/m*3 2.4 C 0 km/h
148 14-11-2007 05:33:02 2.2 C 4.73 g/m*3 2.2 C 0 km/h
149 14-11-2007 05:45:02 1.8 C 4.71 g/m*3 1.8 C 0 km/h
150 14-11-2007 05:57:02 1.9 C 4.8 g/m*3 1.9 C 0 km/h
Sensor: Nr:Datum:Temp:Abs-Feuchte:Windchill:Wind:
Aussen-T/F 151 14-11-2007 06:09:02 2.2 C 4.84 g/m*3 2.2 C 0 km/h
152 14-11-2007 06:21:02 2.3 C 4.82 g/m*3 2.3 C 0 km/h
153 14-11-2007 06:33:02 2.4 C 4.8 g/m*3 2.4 C 0 km/h
154 14-11-2007 06:45:02 2.5 C 4.83 g/m*3 2.5 C 0 km/h
155 14-11-2007 06:57:02 2.4 C 4.85 g/m*3 2.4 C 0 km/h
156 14-11-2007 07:09:02 2.4 C 4.85 g/m*3 2.4 C 0 km/h
157 14-11-2007 07:21:02 2.4 C 4.91 g/m*3 2.4 C 0 km/h
158 14-11-2007 07:33:02 2.4 C 4.91 g/m*3 2.4 C 0 km/h
159 14-11-2007 07:45:02 2.5 C 4.94 g/m*3 2.5 C 0 km/h
160 14-11-2007 07:57:02 2.5 C 4.94 g/m*3 2.5 C 0 km/h
161 14-11-2007 08:09:02 2.5 C 5 g/m*3 2.5 C 0 km/h
162 14-11-2007 08:21:02 2.5 C 5 g/m*3 2.5 C 0 km/h
163 14-11-2007 08:33:02 2.7 C 4.95 g/m*3 2.7 C 0 km/h
164 14-11-2007 08:45:02 2.7 C 4.95 g/m*3 2.7 C 0 km/h
165 14-11-2007 08:57:02 2.9 C 4.84 g/m*3 2.9 C 0 km/h
166 14-11-2007 09:09:02 2.9 C 4.72 g/m*3 2.9 C 0 km/h
167 14-11-2007 09:21:02 3 C 4.7 g/m*3 3 C 0 km/h
168 14-11-2007 09:33:02 3 C 4.58 g/m*3 3 C 0 km/h
169 14-11-2007 09:45:02 3.1 C 4.55 g/m*3 3.1 C 0 km/h
170 14-11-2007 09:57:02 3 C 4.4 g/m*3 3 C 0 km/h
171 14-11-2007 10:09:02 2.8 C 4.28 g/m*3 2.8 C 0 km/h
172 14-11-2007 10:21:02 3.2 C 4.34 g/m*3 3.2 C 0 km/h
173 14-11-2007 10:33:02 3.3 C 4.31 g/m*3 3.3 C 0 km/h
174 14-11-2007 10:45:02 3.2 C 4.22 g/m*3 3.2 C 0 km/h
175 14-11-2007 10:57:02 3 C 4.1 g/m*3 3 C 0 km/h
Sensor: Nr:Datum:Temp:Abs-Feuchte:Windchill:Wind:
Aussen-T/F 176 14-11-2007 11:09:02 3.2 C 4.1 g/m*3 3.2 C 0 km/h
177 14-11-2007 11:21:02 3.4 C 4.09 g/m*3 3.4 C 0 km/h
178 14-11-2007 11:33:02 3.5 C 4.12 g/m*3 3.5 C 0 km/h
179 14-11-2007 11:45:02 3.6 C 4.15 g/m*3 3.6 C 0 km/h
180 14-11-2007 11:57:02 3.4 C 3.97 g/m*3 3.4 C 0 km/h
181 14-11-2007 12:09:02 3.5 C 4.12 g/m*3 3.5 C 0 km/h
182 14-11-2007 12:21:02 3.6 C 3.96 g/m*3 3.6 C 0 km/h
183 14-11-2007 12:33:02 3.2 C 3.92 g/m*3 3.2 C 0 km/h
184 14-11-2007 12:45:02 3.3 C 4 g/m*3 3.3 C 0 km/h
185 14-11-2007 12:57:02 3.6 C 3.9 g/m*3 3.6 C 0 km/h
186 14-11-2007 13:09:02 3.8 C 3.83 g/m*3 3.8 C 0 km/h
187 14-11-2007 13:21:01 3.8 C 3.83 g/m*3 3.8 C 0 km/h
188 14-11-2007 13:33:02 4.1 C 3.78 g/m*3 4.1 C 0 km/h
189 14-11-2007 13:45:02 3.5 C 3.44 g/m*3 3.5 C 0 km/h
190 14-11-2007 13:57:02 3.5 C 3.44 g/m*3 3.5 C 0 km/h
191 14-11-2007 14:09:02 3.5 C 3.44 g/m*3 3.5 C 0 km/h
192 14-11-2007 14:21:02 3.5 C 3.38 g/m*3 3.5 C 0 km/h
193 14-11-2007 14:33:02 3.6 C 3.4 g/m*3 3.6 C 0 km/h
194 14-11-2007 14:45:01 3.6 C 3.47 g/m*3 3.6 C 0 km/h
195 14-11-2007 14:57:01 3.5 C 3.38 g/m*3 3.5 C 0 km/h
196 14-11-2007 15:09:01 3.5 C 3.44 g/m*3 3.5 C 0 km/h
197 14-11-2007 15:21:01 3.4 C 3.48 g/m*3 3.4 C 0 km/h
198 14-11-2007 15:33:01 3.4 C 3.54 g/m*3 3.4 C 0 km/h
199 14-11-2007 15:45:02 3.4 C 3.54 g/m*3 3.4 C 0 km/h
200 14-11-2007 15:57:02 3.4 C 3.36 g/m*3 3.4 C 0 km/h
Sensor: Nr:Datum:Temp:Abs-Feuchte:Windchill:Wind:
Aussen-T/F 201 14-11-2007 16:09:02 3.3 C 3.34 g/m*3 3.3 C 0 km/h
202 14-11-2007 16:21:02 3.2 C 3.31 g/m*3 3.2 C 0 km/h
203 14-11-2007 16:33:02 3.2 C 3.31 g/m*3 3.2 C 0 km/h
204 14-11-2007 16:45:02 2.9 C 3.43 g/m*3 2.9 C 0 km/h
205 14-11-2007 16:57:02 2.7 C 3.44 g/m*3 2.7 C 0 km/h
206 14-11-2007 17:09:02 2.7 C 3.5 g/m*3 2.7 C 0 km/h
207 14-11-2007 17:21:02 2.4 C 3.54 g/m*3 2.4 C 0 km/h
208 14-11-2007 17:33:02 2.4 C 3.6 g/m*3 2.4 C 0 km/h
209 14-11-2007 17:45:02 2.6 C 3.7 g/m*3 2.6 C 0 km/h
210 14-11-2007 17:57:02 2.4 C 3.65 g/m*3 2.4 C 0 km/h
211 14-11-2007 18:09:02 2.1 C 3.64 g/m*3 2.1 C 0 km/h
212 14-11-2007 18:21:02 2.2 C 3.66 g/m*3 2.2 C 0 km/h
213 14-11-2007 18:33:02 2.3 C 3.69 g/m*3 2.3 C 0 km/h
214 14-11-2007 18:45:01 2.3 C 3.74 g/m*3 2.3 C 0 km/h
215 14-11-2007 18:57:01 2.3 C 3.8 g/m*3 2.3 C 0 km/h
216 14-11-2007 19:09:01 2.2 C 3.77 g/m*3 2.2 C 0 km/h
217 14-11-2007 19:21:02 2.1 C 3.8 g/m*3 2.1 C 0 km/h
218 14-11-2007 19:33:02 2.3 C 3.8 g/m*3 2.3 C 0 km/h
219 14-11-2007 19:45:02 2.3 C 3.8 g/m*3 2.3 C 0 km/h
220 14-11-2007 19:57:02 2.2 C 3.83 g/m*3 2.2 C 0 km/h
221 14-11-2007 20:09:01 2.1 C 3.86 g/m*3 2.1 C 0 km/h
222 14-11-2007 20:21:02 2 C 3.95 g/m*3 2 C 0 km/h
223 14-11-2007 20:33:02 2 C 4 g/m*3 2 C 0 km/h
224 14-11-2007 20:45:02 1.8 C 4.06 g/m*3 1.8 C 0 km/h
225 14-11-2007 20:57:02 1.9 C 4.08 g/m*3 1.9 C 0 km/h
Sensor: Nr:Datum:Temp:Abs-Feuchte:Windchill:Wind:
Aussen-T/F 226 14-11-2007 21:09:02 1.9 C 3.97 g/m*3 1.9 C 0 km/h
227 14-11-2007 21:21:02 1.6 C 3.89 g/m*3 1.6 C 0 km/h
228 14-11-2007 21:33:02 1.6 C 3.84 g/m*3 1.6 C 0 km/h
229 14-11-2007 21:45:02 1.5 C 3.81 g/m*3 1.5 C 0 km/h
230 14-11-2007 21:57:02 1.4 C 3.84 g/m*3 1.4 C 0 km/h
231 14-11-2007 22:09:02 0.9 C 3.81 g/m*3 0.9 C 0 km/h
232 14-11-2007 22:21:01 0.8 C 3.89 g/m*3 0.8 C 0 km/h
233 14-11-2007 22:33:01 0.7 C 3.92 g/m*3 0.7 C 0 km/h
234 14-11-2007 22:45:02 0.8 C 3.99 g/m*3 0.8 C 0 km/h
235 14-11-2007 22:57:02 1 C 4.05 g/m*3 1 C 0 km/h
236 14-11-2007 23:09:02 0.9 C 4.02 g/m*3 0.9 C 0 km/h
237 14-11-2007 23:21:02 0.9 C 4.07 g/m*3 0.9 C 0 km/h
238 14-11-2007 23:33:02 0.8 C 3.99 g/m*3 0.8 C 0 km/h
239 14-11-2007 23:45:02 1 C 4.05 g/m*3 1 C 0 km/h
240 14-11-2007 23:57:02 0.9 C 4.07 g/m*3 0.9 C 0 km/h
241 15-11-2007 00:09:02 0.6 C 3.99 g/m*3 0.6 C 0 km/h
242 15-11-2007 00:21:02 0.3 C 3.96 g/m*3 0.3 C 0 km/h
243 15-11-2007 00:33:02 0.3 C 4.01 g/m*3 0.3 C 0 km/h
244 15-11-2007 00:45:02 0.4 C 4.03 g/m*3 0.4 C 0 km/h
245 15-11-2007 00:57:02 0.4 C 3.98 g/m*3 0.4 C 0 km/h
246 15-11-2007 01:09:02 0.3 C 4.01 g/m*3 0.3 C 0 km/h
247 15-11-2007 01:21:02 0.4 C 4.03 g/m*3 0.4 C 0 km/h
248 15-11-2007 01:33:02 0.4 C 3.98 g/m*3 0.4 C 0 km/h
249 15-11-2007 01:45:01 0.5 C 4.01 g/m*3 0.5 C 0 km/h
250 15-11-2007 01:57:01 0.6 C 4.04 g/m*3 0.6 C 0 km/h
Sensor: Nr:Datum:Temp:Abs-Feuchte:Windchill:Wind:
Aussen-T/F 251 15-11-2007 02:09:02 0.6 C 4.04 g/m*3 0.6 C 0 km/h
252 15-11-2007 02:21:02 0.7 C 4.07 g/m*3 0.7 C 0 km/h
253 15-11-2007 02:33:02 0.8 C 4.04 g/m*3 0.8 C 0 km/h
254 15-11-2007 02:46:03 0.8 C 4.04 g/m*3 0.8 C 0 km/h
255 15-11-2007 02:58:03 0.7 C 4.02 g/m*3 0.7 C 0 km/h
256 15-11-2007 03:10:03 0.4 C 3.93 g/m*3 0.4 C 0 km/h
257 15-11-2007 03:22:03 0.2 C 3.93 g/m*3 0.2 C 0 km/h
258 15-11-2007 03:34:02 0.4 C 4.03 g/m*3 0.4 C 0 km/h
259 15-11-2007 03:46:02 0.2 C 3.93 g/m*3 0.2 C 0 km/h
260 15-11-2007 03:58:02 0.2 C 3.98 g/m*3 0.2 C 0 km/h
261 15-11-2007 04:10:03 0.2 C 3.98 g/m*3 0.2 C 0 km/h
262 15-11-2007 04:22:03 0.2 C 3.98 g/m*3 0.2 C 0 km/h
263 15-11-2007 04:34:03 0.4 C 4.03 g/m*3 0.4 C 0 km/h
264 15-11-2007 04:46:01 0.4 C 3.98 g/m*3 0.4 C 0 km/h
265 15-11-2007 04:58:01 0.4 C 3.98 g/m*3 0.4 C 0 km/h
266 15-11-2007 05:10:01 0.3 C 3.96 g/m*3 0.3 C 0 km/h
267 15-11-2007 05:22:01 0.3 C 3.96 g/m*3 0.3 C 0 km/h
268 15-11-2007 05:34:01 0.4 C 3.98 g/m*3 0.4 C 0 km/h
269 15-11-2007 05:46:02 0.5 C 4.01 g/m*3 0.5 C 0 km/h
270 15-11-2007 05:58:02 0.5 C 4.01 g/m*3 0.5 C 0 km/h
271 15-11-2007 06:10:02 0.5 C 3.96 g/m*3 0.5 C 0 km/h
272 15-11-2007 06:22:02 0.3 C 3.86 g/m*3 0.3 C 0 km/h
273 15-11-2007 06:34:02 0 C 3.83 g/m*3 0 C 0 km/h
274 15-11-2007 06:46:01 0.4 C 3.88 g/m*3 0.4 C 0 km/h
275 15-11-2007 06:58:01 0.7 C 3.76 g/m*3 0.7 C 0 km/h
Sensor: Nr:Datum:Temp:Abs-Feuchte:Windchill:Wind:
Aussen-T/F 276 15-11-2007 07:10:01 0.6 C 3.74 g/m*3 0.6 C 0 km/h
277 15-11-2007 07:22:02 0.6 C 3.79 g/m*3 0.6 C 0 km/h
278 15-11-2007 07:34:02 0.5 C 3.76 g/m*3 0.5 C 0 km/h
279 15-11-2007 07:46:02 0.5 C 3.76 g/m*3 0.5 C 0 km/h
280 15-11-2007 07:58:02 0.6 C 3.79 g/m*3 0.6 C 0 km/h
281 15-11-2007 08:10:03 0.6 C 3.79 g/m*3 0.6 C 0 km/h
282 15-11-2007 08:22:03 0.7 C 3.76 g/m*3 0.7 C 0 km/h
283 15-11-2007 08:34:03 0.7 C 3.76 g/m*3 0.7 C 0 km/h
284 15-11-2007 08:46:02 0.7 C 3.81 g/m*3 0.7 C 0 km/h
285 15-11-2007 08:58:02 0.8 C 3.84 g/m*3 0.8 C 0 km/h
286 15-11-2007 09:10:02 0.8 C 3.84 g/m*3 0.8 C 0 km/h
287 15-11-2007 09:22:02 0.8 C 3.79 g/m*3 0.8 C 0 km/h
288 15-11-2007 09:34:02 1 C 3.84 g/m*3 1 C 0 km/h
289 15-11-2007 09:46:01 1.1 C 3.87 g/m*3 1.1 C 0 km/h
290 15-11-2007 09:58:01 1.3 C 3.92 g/m*3 1.3 C 0 km/h
291 15-11-2007 10:10:01 1.4 C 3.84 g/m*3 1.4 C 0 km/h
292 15-11-2007 10:22:01 1.5 C 3.87 g/m*3 1.5 C 0 km/h
293 15-11-2007 10:34:01 1.7 C 3.87 g/m*3 1.7 C 0 km/h
294 15-11-2007 10:46:02 1.8 C 3.89 g/m*3 1.8 C 0 km/h
295 15-11-2007 10:58:02 2.3 C 3.91 g/m*3 2.3 C 0 km/h
296 15-11-2007 11:10:02 3 C 3.92 g/m*3 3 C 0 km/h
297 15-11-2007 11:22:02 3.1 C 3.77 g/m*3 3.1 C 0 km/h
298 15-11-2007 11:34:02 2.4 C 3.71 g/m*3 2.4 C 0 km/h
299 15-11-2007 11:46:02 2.7 C 3.9 g/m*3 2.7 C 0 km/h
300 15-11-2007 11:58:02 3.3 C 3.88 g/m*3 3.3 C 0 km/h
Sensor: Nr:Datum:Temp:Abs-Feuchte:Windchill:Wind:
Aussen-T/F 301 15-11-2007 12:10:02 3.3 C 3.64 g/m*3 3.3 C 0 km/h
302 15-11-2007 12:22:02 3.9 C 3.79 g/m*3 3.9 C 0 km/h
303 15-11-2007 12:34:02 4.5 C 3.75 g/m*3 4.5 C 0 km/h
304 15-11-2007 12:46:03 5.1 C 3.63 g/m*3 5.1 C 0 km/h
305 15-11-2007 12:58:03 4.1 C 3.46 g/m*3 4.1 C 0 km/h
306 15-11-2007 13:10:03 4.6 C 3.51 g/m*3 4.6 C 0 km/h
307 15-11-2007 13:22:03 5.4 C 3.49 g/m*3 5.4 C 0 km/h
308 15-11-2007 13:34:03 6.2 C 3.38 g/m*3 6.2 C 0 km/h
309 15-11-2007 13:46:02 6.6 C 3.17 g/m*3 6.6 C 0 km/h
310 15-11-2007 13:58:02 4.7 C 3.33 g/m*3 4.7 C 0 km/h
311 15-11-2007 14:10:02 4.5 C 3.42 g/m*3 4.5 C 0 km/h
312 15-11-2007 14:22:02 4.6 C 3.57 g/m*3 4.6 C 0 km/h
313 15-11-2007 14:34:02 4.4 C 3.46 g/m*3 4.4 C 0 km/h
314 15-11-2007 14:46:01 4.4 C 3.53 g/m*3 4.4 C 0 km/h
315 15-11-2007 14:58:01 4.3 C 3.44 g/m*3 4.3 C 0 km/h
316 15-11-2007 15:10:01 3.7 C 3.74 g/m*3 3.7 C 0 km/h
317 15-11-2007 15:22:02 3.6 C 3.9 g/m*3 3.6 C 0 km/h
318 15-11-2007 15:34:02 3.6 C 3.9 g/m*3 3.6 C 0 km/h
319 15-11-2007 15:46:03 3.2 C 3.86 g/m*3 3.2 C 0 km/h
320 15-11-2007 15:58:03 3.2 C 3.98 g/m*3 3.2 C 0 km/h
321 15-11-2007 16:10:03 3.2 C 4.04 g/m*3 3.2 C 0 km/h
322 15-11-2007 16:22:03 3 C 3.98 g/m*3 3 C 0 km/h
323 15-11-2007 16:34:03 2.9 C 4.07 g/m*3 2.9 C 0 km/h
324 15-11-2007 16:46:02 2.8 C 4.11 g/m*3 2.8 C 0 km/h
325 15-11-2007 16:58:02 2.8 C 4.11 g/m*3 2.8 C 0 km/h
Sensor: Nr:Datum:Temp:Abs-Feuchte:Windchill:Wind:
Aussen-T/F 326 15-11-2007 17:10:02 2.9 C 3.78 g/m*3 2.9 C 0 km/h
327 15-11-2007 17:22:02 2.9 C 3.48 g/m*3 2.9 C 0 km/h
328 15-11-2007 17:34:03 2.9 C 3.43 g/m*3 2.9 C 0 km/h
329 15-11-2007 17:46:02 2.6 C 3.36 g/m*3 2.6 C 0 km/h
330 15-11-2007 17:58:02 2.1 C 3.36 g/m*3 2.1 C 0 km/h
331 15-11-2007 18:10:02 1.5 C 3.44 g/m*3 1.5 C 0 km/h
332 15-11-2007 18:22:03 0.8 C 3.58 g/m*3 0.8 C 0 km/h
333 15-11-2007 18:34:03 0.5 C 3.61 g/m*3 0.5 C 0 km/h
334 15-11-2007 18:46:01 0.4 C 3.64 g/m*3 0.4 C 0 km/h
335 15-11-2007 18:58:01 0.4 C 3.69 g/m*3 0.4 C 0 km/h
336 15-11-2007 19:10:01 0.2 C 3.64 g/m*3 0.2 C 0 km/h
337 15-11-2007 19:22:02 0.1 C 3.66 g/m*3 0.1 C 0 km/h
338 15-11-2007 19:34:02 0 C 3.63 g/m*3 0 C 0 km/h
339 15-11-2007 19:46:03 -0.1 C 3.66 g/m*3 -0.1 C 0 km/h
340 15-11-2007 19:58:03 0.2 C 3.78 g/m*3 0.2 C 0 km/h
341 15-11-2007 20:10:02 0.3 C 3.81 g/m*3 0.3 C 0 km/h
342 15-11-2007 20:22:02 0.5 C 3.81 g/m*3 0.5 C 0 km/h
343 15-11-2007 20:34:02 0.5 C 3.81 g/m*3 0.5 C 0 km/h
344 15-11-2007 20:46:02 0.4 C 3.74 g/m*3 0.4 C 0 km/h
345 15-11-2007 20:58:03 0.1 C 3.66 g/m*3 0.1 C 0 km/h
346 15-11-2007 21:10:02 0 C 3.68 g/m*3 0 C 0 km/h
347 15-11-2007 21:22:02 0.3 C 3.81 g/m*3 0.3 C 0 km/h
348 15-11-2007 21:34:02 0.3 C 3.81 g/m*3 0.3 C 0 km/h
349 15-11-2007 21:46:01 0.2 C 3.73 g/m*3 0.2 C 0 km/h
350 15-11-2007 21:58:01 0 C 3.68 g/m*3 0 C 0 km/h
Sensor: Nr:Datum:Temp:Abs-Feuchte:Windchill:Wind:
Aussen-T/F 351 15-11-2007 22:10:02 -0.2 C 3.63 g/m*3 -0.2 C 0 km/h
352 15-11-2007 22:22:02 -0.5 C 3.6 g/m*3 -0.5 C 0 km/h
353 15-11-2007 22:34:02 -0.7 C 3.6 g/m*3 -0.7 C 0 km/h
354 15-11-2007 22:46:02 -0.8 C 3.62 g/m*3 -0.8 C 0 km/h
355 15-11-2007 22:58:03 -0.9 C 3.64 g/m*3 -0.9 C 0 km/h
356 15-11-2007 23:10:02 -1.1 C 3.59 g/m*3 -1.1 C 0 km/h
357 15-11-2007 23:22:02 -1.3 C 3.59 g/m*3 -1.3 C 0 km/h
358 15-11-2007 23:34:01 -1.6 C 3.55 g/m*3 -1.6 C 0 km/h
359 15-11-2007 23:46:03 -1.8 C 3.51 g/m*3 -1.8 C 0 km/h
360 15-11-2007 23:58:03 -1.8 C 3.55 g/m*3 -1.8 C 0 km/h
361 16-11-2007 00:10:02 -2.1 C 3.47 g/m*3 -2.1 C 0 km/h
362 16-11-2007 00:22:03 -1.9 C 3.61 g/m*3 -1.9 C 0 km/h
363 16-11-2007 00:34:02 -1.6 C 3.73 g/m*3 -1.6 C 0 km/h
364 16-11-2007 00:46:02 -1.6 C 3.77 g/m*3 -1.6 C 0 km/h
365 16-11-2007 00:58:02 -1.8 C 3.72 g/m*3 -1.8 C 0 km/h
366 16-11-2007 01:10:02 -2 C 3.67 g/m*3 -2 C 0 km/h
367 16-11-2007 01:22:02 -2 C 3.67 g/m*3 -2 C 0 km/h
368 16-11-2007 01:34:02 -1.9 C 3.69 g/m*3 -1.9 C 0 km/h
369 16-11-2007 01:46:02 -2.1 C 3.64 g/m*3 -2.1 C 0 km/h
370 16-11-2007 01:58:02 -2.1 C 3.68 g/m*3 -2.1 C 0 km/h
371 16-11-2007 02:10:02 -2.3 C 3.63 g/m*3 -2.3 C 0 km/h
372 16-11-2007 02:22:02 -2.3 C 3.63 g/m*3 -2.3 C 0 km/h
373 16-11-2007 02:34:02 -2.4 C 3.65 g/m*3 -2.4 C 0 km/h
374 16-11-2007 02:47:04 -2.5 C 3.62 g/m*3 -2.5 C 0 km/h
375 16-11-2007 02:59:04 -2.6 C 3.6 g/m*3 -2.6 C 0 km/h
Sensor: Nr:Datum:Temp:Abs-Feuchte:Windchill:Wind:
Aussen-T/F 376 16-11-2007 03:11:04 -2.6 C 3.6 g/m*3 -2.6 C 0 km/h
377 16-11-2007 03:23:04 -2.7 C 3.57 g/m*3 -2.7 C 0 km/h
378 16-11-2007 03:35:02 -2.7 C 3.61 g/m*3 -2.7 C 0 km/h
379 16-11-2007 03:47:02 -3 C 3.54 g/m*3 -3 C 0 km/h
380 16-11-2007 03:59:02 -2.9 C 3.56 g/m*3 -2.9 C 0 km/h
381 16-11-2007 04:11:02 -2.8 C 3.59 g/m*3 -2.8 C 0 km/h
382 16-11-2007 04:23:03 -3 C 3.54 g/m*3 -3 C 0 km/h
383 16-11-2007 04:35:02 -3 C 3.54 g/m*3 -3 C 0 km/h
384 16-11-2007 04:47:03 -3.1 C 3.55 g/m*3 -3.1 C 0 km/h
385 16-11-2007 04:59:03 -3.3 C 3.5 g/m*3 -3.3 C 0 km/h
386 16-11-2007 05:11:02 -3.4 C 3.47 g/m*3 -3.4 C 0 km/h
387 16-11-2007 05:23:02 -3.4 C 3.47 g/m*3 -3.4 C 0 km/h
388 16-11-2007 05:35:02 -3.5 C 3.45 g/m*3 -3.5 C 0 km/h
389 16-11-2007 05:47:02 -3.6 C 3.43 g/m*3 -3.6 C 0 km/h
390 16-11-2007 05:59:02 -3.6 C 3.43 g/m*3 -3.6 C 0 km/h
391 16-11-2007 06:11:02 -3.5 C 3.49 g/m*3 -3.5 C 0 km/h
392 16-11-2007 06:23:02 -3.5 C 3.49 g/m*3 -3.5 C 0 km/h
393 16-11-2007 06:35:02 -3.6 C 3.46 g/m*3 -3.6 C 0 km/h
394 16-11-2007 06:47:02 -3.7 C 3.4 g/m*3 -3.7 C 0 km/h
395 16-11-2007 06:59:03 -4 C 3.33 g/m*3 -4 C 0 km/h
396 16-11-2007 07:11:02 -3.9 C 3.35 g/m*3 -3.9 C 0 km/h
397 16-11-2007 07:23:02 -3.9 C 3.35 g/m*3 -3.9 C 0 km/h
398 16-11-2007 07:35:02 -3.9 C 3.35 g/m*3 -3.9 C 0 km/h
399 16-11-2007 07:47:02 -3.8 C 3.38 g/m*3 -3.8 C 0 km/h
400 16-11-2007 07:59:02 -3.8 C 3.38 g/m*3 -3.8 C 0 km/h
Sensor: Nr:Datum:Temp:Abs-Feuchte:Windchill:Wind:
Aussen-T/F 401 16-11-2007 08:11:02 -3.8 C 3.38 g/m*3 -3.8 C 0 km/h
402 16-11-2007 08:23:02 -3.5 C 3.49 g/m*3 -3.5 C 0 km/h
403 16-11-2007 08:35:02 -3.5 C 3.49 g/m*3 -3.5 C 0 km/h
404 16-11-2007 08:47:02 -3.4 C 3.47 g/m*3 -3.4 C 0 km/h
405 16-11-2007 08:59:02 -3.1 C 3.55 g/m*3 -3.1 C 0 km/h
406 16-11-2007 09:11:01 -2.9 C 3.6 g/m*3 -2.9 C 0 km/h
407 16-11-2007 09:23:01 -2.6 C 3.72 g/m*3 -2.6 C 0 km/h
408 16-11-2007 09:35:01 -2.7 C 3.65 g/m*3 -2.7 C 0 km/h
409 16-11-2007 09:47:02 -2.9 C 3.6 g/m*3 -2.9 C 0 km/h
410 16-11-2007 09:59:02 -2.7 C 3.65 g/m*3 -2.7 C 0 km/h
411 16-11-2007 10:11:02 -2.6 C 3.64 g/m*3 -2.6 C 0 km/h
412 16-11-2007 10:23:02 -2.3 C 3.71 g/m*3 -2.3 C 0 km/h
413 16-11-2007 10:35:02 -1.7 C 3.83 g/m*3 -1.7 C 0 km/h
414 16-11-2007 10:47:02 -1.3 C 3.94 g/m*3 -1.3 C 0 km/h
415 16-11-2007 10:59:02 -1 C 3.98 g/m*3 -1 C 0 km/h
416 16-11-2007 11:11:02 -0.7 C 3.97 g/m*3 -0.7 C 0 km/h
417 16-11-2007 11:23:02 -0.7 C 3.83 g/m*3 -0.7 C 0 km/h
418 16-11-2007 11:35:02 -0.5 C 3.88 g/m*3 -0.5 C 0 km/h
419 16-11-2007 11:47:02 -0.3 C 3.94 g/m*3 -0.3 C 0 km/h
420 16-11-2007 11:59:02 -0.2 C 3.87 g/m*3 -0.2 C 0 km/h
421 16-11-2007 12:11:02 0.1 C 3.95 g/m*3 0.1 C 0 km/h
422 16-11-2007 12:23:02 0.5 C 4.01 g/m*3 0.5 C 0 km/h
423 16-11-2007 12:35:02 0.9 C 3.97 g/m*3 0.9 C 0 km/h
424 16-11-2007 12:47:02 1.1 C 3.97 g/m*3 1.1 C 0 km/h
425 16-11-2007 12:59:02 1.8 C 4.06 g/m*3 1.8 C 0 km/h
Sensor: Nr:Datum:Temp:Abs-Feuchte:Windchill:Wind:
Aussen-T/F 426 16-11-2007 13:11:02 1.5 C 3.71 g/m*3 1.5 C 0 km/h
427 16-11-2007 13:23:02 1.8 C 3.89 g/m*3 1.8 C 0 km/h
428 16-11-2007 13:35:02 1.9 C 3.81 g/m*3 1.9 C 0 km/h
429 16-11-2007 13:47:02 2.2 C 3.89 g/m*3 2.2 C 0 km/h
430 16-11-2007 13:59:02 2.7 C 4.02 g/m*3 2.7 C 0 km/h
431 16-11-2007 14:11:02 2.7 C 3.96 g/m*3 2.7 C 0 km/h
432 16-11-2007 14:23:02 2.6 C 3.88 g/m*3 2.6 C 0 km/h
433 16-11-2007 14:35:02 3.3 C 4.06 g/m*3 3.3 C 0 km/h
434 16-11-2007 14:47:02 3.3 C 3.82 g/m*3 3.3 C 0 km/h
435 16-11-2007 14:59:02 3.2 C 3.92 g/m*3 3.2 C 0 km/h
436 16-11-2007 15:11:02 3 C 3.81 g/m*3 3 C 0 km/h
437 16-11-2007 15:23:02 2.9 C 3.9 g/m*3 2.9 C 0 km/h
438 16-11-2007 15:35:02 2.7 C 3.9 g/m*3 2.7 C 0 km/h
439 16-11-2007 15:47:02 2.5 C 3.97 g/m*3 2.5 C 0 km/h
440 16-11-2007 15:59:02 2.5 C 4.02 g/m*3 2.5 C 0 km/h
441 16-11-2007 16:11:02 2.3 C 4.03 g/m*3 2.3 C 0 km/h
442 16-11-2007 16:23:02 2.1 C 4.03 g/m*3 2.1 C 0 km/h
443 16-11-2007 16:35:02 2 C 4.06 g/m*3 2 C 0 km/h
444 16-11-2007 16:47:03 1.6 C 4.06 g/m*3 1.6 C 0 km/h
445 16-11-2007 16:59:03 1.5 C 4.08 g/m*3 1.5 C 0 km/h
446 16-11-2007 17:11:02 1.5 C 4.08 g/m*3 1.5 C 0 km/h
447 16-11-2007 17:23:02 1.4 C 4.11 g/m*3 1.4 C 0 km/h
448 16-11-2007 17:35:02 1.4 C 4.11 g/m*3 1.4 C 0 km/h
449 16-11-2007 17:47:02 1.3 C 4.08 g/m*3 1.3 C 0 km/h
450 16-11-2007 17:59:02 1.2 C 4.05 g/m*3 1.2 C 0 km/h
Sensor: Nr:Datum:Temp:Abs-Feuchte:Windchill:Wind:
Aussen-T/F 451 16-11-2007 18:11:02 1.1 C 4.08 g/m*3 1.1 C 0 km/h
452 16-11-2007 18:23:02 1.1 C 4.08 g/m*3 1.1 C 0 km/h
453 16-11-2007 18:35:03 1 C 4.05 g/m*3 1 C 0 km/h
454 16-11-2007 18:47:03 1 C 4.1 g/m*3 1 C 0 km/h
455 16-11-2007 18:59:03 1 C 4.1 g/m*3 1 C 0 km/h
456 16-11-2007 19:11:02 0.9 C 4.12 g/m*3 0.9 C 0 km/h
457 16-11-2007 19:23:03 0.9 C 4.12 g/m*3 0.9 C 0 km/h
458 16-11-2007 19:35:03 0.9 C 4.12 g/m*3 0.9 C 0 km/h
459 16-11-2007 19:47:03 0.7 C 4.07 g/m*3 0.7 C 0 km/h
460 16-11-2007 19:59:03 0.7 C 4.12 g/m*3 0.7 C 0 km/h
461 16-11-2007 20:11:03 0.7 C 4.12 g/m*3 0.7 C 0 km/h
462 16-11-2007 20:23:02 0.7 C 4.17 g/m*3 0.7 C 0 km/h
463 16-11-2007 20:35:02 0.8 C 4.15 g/m*3 0.8 C 0 km/h
464 16-11-2007 20:47:02 1 C 4.15 g/m*3 1 C 0 km/h
465 16-11-2007 20:59:02 1 C 4.1 g/m*3 1 C 0 km/h
466 16-11-2007 21:11:02 1 C 4.1 g/m*3 1 C 0 km/h
467 16-11-2007 21:23:02 1 C 4.1 g/m*3 1 C 0 km/h
468 16-11-2007 21:35:02 1 C 4.1 g/m*3 1 C 0 km/h
469 16-11-2007 21:47:02 0.9 C 4.12 g/m*3 0.9 C 0 km/h
470 16-11-2007 21:59:02 0.9 C 4.18 g/m*3 0.9 C 0 km/h
471 16-11-2007 22:11:02 0.8 C 4.2 g/m*3 0.8 C 0 km/h
472 16-11-2007 22:23:02 0.8 C 4.2 g/m*3 0.8 C 0 km/h
473 16-11-2007 22:35:02 0.9 C 4.23 g/m*3 0.9 C 0 km/h
474 16-11-2007 22:47:01 0.9 C 4.18 g/m*3 0.9 C 0 km/h
475 16-11-2007 22:59:01 0.9 C 4.18 g/m*3 0.9 C 0 km/h
Sensor: Nr:Datum:Temp:Abs-Feuchte:Windchill:Wind:
Aussen-T/F 476 16-11-2007 23:11:01 1 C 4.15 g/m*3 1 C 0 km/h
477 16-11-2007 23:23:01 0.9 C 4.18 g/m*3 0.9 C 0 km/h
478 16-11-2007 23:35:01 0.9 C 4.18 g/m*3 0.9 C 0 km/h
479 16-11-2007 23:47:02 0.9 C 4.18 g/m*3 0.9 C 0 km/h
480 16-11-2007 23:59:02 1 C 4.2 g/m*3 1 C 0 km/h
481 17-11-2007 00:11:02 1 C 4.2 g/m*3 1 C 0 km/h
482 17-11-2007 00:23:03 1 C 4.2 g/m*3 1 C 0 km/h
483 17-11-2007 00:35:02 1.1 C 4.18 g/m*3 1.1 C 0 km/h
484 17-11-2007 00:47:02 1.1 C 4.18 g/m*3 1.1 C 0 km/h
485 17-11-2007 00:59:02 1.1 C 4.18 g/m*3 1.1 C 0 km/h
486 17-11-2007 01:11:02 1.2 C 4.21 g/m*3 1.2 C 0 km/h
487 17-11-2007 01:23:01 1.2 C 4.21 g/m*3 1.2 C 0 km/h
488 17-11-2007 01:35:01 1.3 C 4.19 g/m*3 1.3 C 0 km/h
489 17-11-2007 01:47:02 1.4 C 4.21 g/m*3 1.4 C 0 km/h
490 17-11-2007 01:59:02 1.4 C 4.21 g/m*3 1.4 C 0 km/h
491 17-11-2007 02:11:02 1.4 C 4.16 g/m*3 1.4 C 0 km/h
492 17-11-2007 02:23:02 1.5 C 4.14 g/m*3 1.5 C 0 km/h
493 17-11-2007 02:35:02 1.5 C 4.14 g/m*3 1.5 C 0 km/h
494 17-11-2007 02:48:03 1.5 C 4.14 g/m*3 1.5 C 0 km/h
495 17-11-2007 03:00:04 1.5 C 4.19 g/m*3 1.5 C 0 km/h
496 17-11-2007 03:12:04 1.5 C 4.19 g/m*3 1.5 C 0 km/h
497 17-11-2007 03:24:04 1.6 C 4.16 g/m*3 1.6 C 0 km/h
498 17-11-2007 03:36:02 1.6 C 4.22 g/m*3 1.6 C 0 km/h
499 17-11-2007 03:48:02 1.7 C 4.14 g/m*3 1.7 C 0 km/h
500 17-11-2007 04:00:02 1.7 C 4.19 g/m*3 1.7 C 0 km/h
Sensor: Nr:Datum:Temp:Abs-Feuchte:Windchill:Wind:
Aussen-T/F 501 17-11-2007 04:12:02 1.7 C 4.14 g/m*3 1.7 C 0 km/h
502 17-11-2007 04:24:02 1.7 C 4.19 g/m*3 1.7 C 0 km/h
503 17-11-2007 04:36:02 1.7 C 4.19 g/m*3 1.7 C 0 km/h
504 17-11-2007 04:48:02 1.7 C 4.19 g/m*3 1.7 C 0 km/h
505 17-11-2007 05:00:02 1.9 C 4.3 g/m*3 1.9 C 0 km/h
506 17-11-2007 05:12:01 1.9 C 4.3 g/m*3 1.9 C 0 km/h
507 17-11-2007 05:24:01 1.9 C 4.25 g/m*3 1.9 C 0 km/h
508 17-11-2007 05:36:01 1.8 C 4.28 g/m*3 1.8 C 0 km/h
509 17-11-2007 05:48:02 1.8 C 4.28 g/m*3 1.8 C 0 km/h
510 17-11-2007 06:00:02 1.9 C 4.3 g/m*3 1.9 C 0 km/h
511 17-11-2007 06:12:02 1.9 C 4.3 g/m*3 1.9 C 0 km/h
512 17-11-2007 06:24:02 1.9 C 4.36 g/m*3 1.9 C 0 km/h
513 17-11-2007 06:36:02 1.9 C 4.36 g/m*3 1.9 C 0 km/h
514 17-11-2007 06:48:03 1.9 C 4.36 g/m*3 1.9 C 0 km/h
515 17-11-2007 07:00:03 1.9 C 4.36 g/m*3 1.9 C 0 km/h
516 17-11-2007 07:12:02 1.9 C 4.36 g/m*3 1.9 C 0 km/h
517 17-11-2007 07:24:02 1.9 C 4.36 g/m*3 1.9 C 0 km/h
518 17-11-2007 07:36:02 1.9 C 4.36 g/m*3 1.9 C 0 km/h
519 17-11-2007 07:48:02 1.9 C 4.36 g/m*3 1.9 C 0 km/h
520 17-11-2007 08:00:02 2 C 4.39 g/m*3 2 C 0 km/h
521 17-11-2007 08:12:02 2 C 4.39 g/m*3 2 C 0 km/h
522 17-11-2007 08:24:02 2.1 C 4.42 g/m*3 2.1 C 0 km/h
523 17-11-2007 08:36:02 2.2 C 4.45 g/m*3 2.2 C 0 km/h
524 17-11-2007 08:48:03 2.2 C 4.45 g/m*3 2.2 C 0 km/h
525 17-11-2007 09:00:03 2.2 C 4.45 g/m*3 2.2 C 0 km/h
Sensor: Nr:Datum:Temp:Abs-Feuchte:Windchill:Wind:
Aussen-T/F 526 17-11-2007 09:12:02 2.3 C 4.48 g/m*3 2.3 C 0 km/h
527 17-11-2007 09:24:02 2.3 C 4.42 g/m*3 2.3 C 0 km/h
528 17-11-2007 09:36:02 2.4 C 4.4 g/m*3 2.4 C 0 km/h
529 17-11-2007 09:48:02 2.6 C 4.46 g/m*3 2.6 C 0 km/h
530 17-11-2007 10:00:02 2.7 C 4.49 g/m*3 2.7 C 0 km/h
531 17-11-2007 10:12:02 2.7 C 4.49 g/m*3 2.7 C 0 km/h
532 17-11-2007 10:24:02 3 C 4.46 g/m*3 3 C 0 km/h
533 17-11-2007 10:36:02 3.1 C 4.43 g/m*3 3.1 C 0 km/h
534 17-11-2007 10:48:02 3.2 C 4.4 g/m*3 3.2 C 0 km/h
535 17-11-2007 11:00:02 3.3 C 4.43 g/m*3 3.3 C 0 km/h
536 17-11-2007 11:12:02 3.4 C 4.46 g/m*3 3.4 C 0 km/h
537 17-11-2007 11:24:02 3.7 C 4.49 g/m*3 3.7 C 0 km/h
538 17-11-2007 11:36:02 4.1 C 4.48 g/m*3 4.1 C 0 km/h
539 17-11-2007 11:48:03 4.2 C 4.51 g/m*3 4.2 C 0 km/h
540 17-11-2007 12:00:03 4.2 C 4.45 g/m*3 4.2 C 0 km/h
541 17-11-2007 12:12:03 4.4 C 4.51 g/m*3 4.4 C 0 km/h
542 17-11-2007 12:24:03 4.7 C 4.6 g/m*3 4.7 C 0 km/h
543 17-11-2007 12:36:03 5.1 C 4.65 g/m*3 5.1 C 0 km/h
544 17-11-2007 12:48:02 5.4 C 4.67 g/m*3 5.4 C 0 km/h
545 17-11-2007 13:00:02 5.5 C 4.71 g/m*3 5.5 C 0 km/h
546 17-11-2007 13:12:02 5.5 C 4.64 g/m*3 5.5 C 0 km/h
547 17-11-2007 13:24:02 5.6 C 4.81 g/m*3 5.6 C 0 km/h
548 17-11-2007 13:36:02 5.7 C 4.77 g/m*3 5.7 C 0 km/h
549 17-11-2007 13:48:02 6 C 4.86 g/m*3 6 C 0 km/h
550 17-11-2007 14:00:02 6.3 C 4.96 g/m*3 6.3 C 0 km/h
Sensor: Nr:Datum:Temp:Abs-Feuchte:Windchill:Wind:
Aussen-T/F 551 17-11-2007 14:12:02 6.6 C 4.98 g/m*3 6.6 C 0 km/h
552 17-11-2007 14:24:02 6.6 C 4.98 g/m*3 6.6 C 0 km/h
553 17-11-2007 14:36:02 6.5 C 4.95 g/m*3 6.5 C 0 km/h
554 17-11-2007 14:48:03 6.3 C 4.96 g/m*3 6.3 C 0 km/h
555 17-11-2007 15:00:03 6.3 C 5.03 g/m*3 6.3 C 0 km/h
556 17-11-2007 15:12:03 6.3 C 5.03 g/m*3 6.3 C 0 km/h
557 17-11-2007 15:24:03 6.2 C 5 g/m*3 6.2 C 0 km/h
558 17-11-2007 15:36:03 6.2 C 5.07 g/m*3 6.2 C 0 km/h
559 17-11-2007 15:48:01 6 C 5.01 g/m*3 6 C 0 km/h
560 17-11-2007 16:00:01 5.9 C 5.05 g/m*3 5.9 C 0 km/h
561 17-11-2007 16:12:01 5.6 C 5.02 g/m*3 5.6 C 0 km/h
562 17-11-2007 16:24:01 5.4 C 5.02 g/m*3 5.4 C 0 km/h
563 17-11-2007 16:36:01 5.3 C 5.13 g/m*3 5.3 C 0 km/h
564 17-11-2007 16:48:03 5 C 5.1 g/m*3 5 C 0 km/h
565 17-11-2007 17:00:03 4.8 C 5.16 g/m*3 4.8 C 0 km/h
566 17-11-2007 17:12:03 4.7 C 5.13 g/m*3 4.7 C 0 km/h
567 17-11-2007 17:24:02 4.6 C 5.16 g/m*3 4.6 C 0 km/h
568 17-11-2007 17:36:02 4.5 C 5.13 g/m*3 4.5 C 0 km/h
569 17-11-2007 17:48:02 4.4 C 5.16 g/m*3 4.4 C 0 km/h
570 17-11-2007 18:00:02 4.3 C 5.12 g/m*3 4.3 C 0 km/h
571 17-11-2007 18:12:02 4.3 C 5.19 g/m*3 4.3 C 0 km/h
572 17-11-2007 18:24:01 4.2 C 5.15 g/m*3 4.2 C 0 km/h
573 17-11-2007 18:36:02 4.2 C 5.15 g/m*3 4.2 C 0 km/h
574 17-11-2007 18:48:02 4.2 C 5.15 g/m*3 4.2 C 0 km/h
575 17-11-2007 19:00:02 4.1 C 5.12 g/m*3 4.1 C 0 km/h
Sensor: Nr:Datum:Temp:Abs-Feuchte:Windchill:Wind:
Aussen-T/F 576 17-11-2007 19:12:02 4 C 5.15 g/m*3 4 C 0 km/h
577 17-11-2007 19:24:02 4 C 5.15 g/m*3 4 C 0 km/h
578 17-11-2007 19:36:02 4 C 5.15 g/m*3 4 C 0 km/h
579 17-11-2007 19:48:02 4.3 C 5.25 g/m*3 4.3 C 0 km/h
580 17-11-2007 20:00:02 4.1 C 5.18 g/m*3 4.1 C 0 km/h
581 17-11-2007 20:12:02 4.3 C 5.25 g/m*3 4.3 C 0 km/h
582 17-11-2007 20:24:02 4 C 5.15 g/m*3 4 C 0 km/h
583 17-11-2007 20:36:02 4 C 5.15 g/m*3 4 C 0 km/h
584 17-11-2007 20:48:02 3.9 C 5.18 g/m*3 3.9 C 0 km/h
585 17-11-2007 21:00:02 4.4 C 5.35 g/m*3 4.4 C 0 km/h
586 17-11-2007 21:12:02 3.8 C 5.21 g/m*3 3.8 C 0 km/h
587 17-11-2007 21:24:03 3.7 C 5.17 g/m*3 3.7 C 0 km/h
588 17-11-2007 21:36:03 3.7 C 5.17 g/m*3 3.7 C 0 km/h
589 17-11-2007 21:48:02 3.6 C 5.14 g/m*3 3.6 C 0 km/h
590 17-11-2007 22:00:02 3.6 C 5.14 g/m*3 3.6 C 0 km/h
591 17-11-2007 22:12:02 3.6 C 5.14 g/m*3 3.6 C 0 km/h
592 17-11-2007 22:24:02 3.5 C 5.16 g/m*3 3.5 C 0 km/h
593 17-11-2007 22:36:02 3.5 C 5.16 g/m*3 3.5 C 0 km/h
594 17-11-2007 22:48:02 3.5 C 5.16 g/m*3 3.5 C 0 km/h
595 17-11-2007 23:00:02 3.5 C 5.16 g/m*3 3.5 C 0 km/h
596 17-11-2007 23:12:01 3.4 C 5.13 g/m*3 3.4 C 0 km/h
597 17-11-2007 23:24:02 3.4 C 5.13 g/m*3 3.4 C 0 km/h
598 17-11-2007 23:36:02 3.4 C 5.19 g/m*3 3.4 C 0 km/h
599 17-11-2007 23:48:02 3.3 C 5.1 g/m*3 3.3 C 0 km/h

Legende:
   Min
   Max


Maximal/Minimal-Werte vom 17.04.2019 - 19.05.2019

Sensor Min Max Avg
Temp
(Aussen-T/F)
2.2 °C
13-05-2019  06:50:00
26.6 °C
24-04-2019  17:05:00
11.51 °C

Die Daten stammen von einer Davis Vantage Pro 2 Wetter-Station und werden unter Linux mit der Software wview2wettercgi und aufbereitet. Alle Angaben erfolgen ohne Gewähr für ihre Vollständigkeit oder Richtigkeit.
Kontakt: Rainer Krienke krienke@uni-koblenz.de . Meine Webseiten an der Uni Koblenz oder privat.
Version: $Revision: 0.78 $